sensor_id;sensor_type;location;lat;lon;timestamp;temperature;humidity
13798;DHT22;6970;51.340;3.240;2024-03-23T00:56:06;9.30;99.90
13798;DHT22;6970;51.340;3.240;2024-03-23T00:58:35;9.20;99.90
13798;DHT22;6970;51.340;3.240;2024-03-23T01:01:04;9.20;99.90
13798;DHT22;6970;51.340;3.240;2024-03-23T01:03:32;9.20;99.90
13798;DHT22;6970;51.340;3.240;2024-03-23T01:06:02;9.20;99.90
13798;DHT22;6970;51.340;3.240;2024-03-23T01:08:35;9.10;99.90
13798;DHT22;6970;51.340;3.240;2024-03-23T01:11:03;9.10;99.90
13798;DHT22;6970;51.340;3.240;2024-03-23T01:13:33;9.10;99.90
13798;DHT22;6970;51.340;3.240;2024-03-23T01:16:02;9.00;99.90
13798;DHT22;6970;51.340;3.240;2024-03-23T01:18:31;9.00;99.90
13798;DHT22;6970;51.340;3.240;2024-03-23T01:21:01;9.00;99.90
13798;DHT22;6970;51.340;3.240;2024-03-23T01:23:28;9.00;99.90
13798;DHT22;6970;51.340;3.240;2024-03-23T01:25:55;9.00;99.90
13798;DHT22;6970;51.340;3.240;2024-03-23T01:28:24;9.00;99.90
13798;DHT22;6970;51.340;3.240;2024-03-23T01:30:53;9.00;99.90
13798;DHT22;6970;51.340;3.240;2024-03-23T01:33:22;9.00;99.90
13798;DHT22;6970;51.340;3.240;2024-03-23T01:35:49;9.00;99.90
13798;DHT22;6970;51.340;3.240;2024-03-23T01:38:15;9.10;99.90
13798;DHT22;6970;51.340;3.240;2024-03-23T01:40:43;9.00;99.90
13798;DHT22;6970;51.340;3.240;2024-03-23T01:43:12;9.00;99.90
13798;DHT22;6970;51.340;3.240;2024-03-23T01:45:42;9.00;99.90
13798;DHT22;6970;51.340;3.240;2024-03-23T01:48:08;9.00;99.90
13798;DHT22;6970;51.340;3.240;2024-03-23T01:50:38;9.00;99.90
13798;DHT22;6970;51.340;3.240;2024-03-23T01:53:07;9.00;99.90
13798;DHT22;6970;51.340;3.240;2024-03-23T01:55:36;9.00;99.90
13798;DHT22;6970;51.340;3.240;2024-03-23T01:58:06;9.00;99.90
13798;DHT22;6970;51.340;3.240;2024-03-23T02:00:36;9.00;99.90
13798;DHT22;6970;51.340;3.240;2024-03-23T02:03:22;9.00;99.90
13798;DHT22;6970;51.340;3.240;2024-03-23T02:05:53;9.00;99.90
13798;DHT22;6970;51.340;3.240;2024-03-23T02:08:21;9.00;99.90
13798;DHT22;6970;51.340;3.240;2024-03-23T02:10:51;9.00;99.90
13798;DHT22;6970;51.340;3.240;2024-03-23T02:13:20;9.00;99.90
13798;DHT22;6970;51.340;3.240;2024-03-23T02:15:49;9.00;99.90
13798;DHT22;6970;51.340;3.240;2024-03-23T02:18:17;9.00;99.90
13798;DHT22;6970;51.340;3.240;2024-03-23T02:20:47;8.90;99.90
13798;DHT22;6970;51.340;3.240;2024-03-23T02:23:16;8.90;99.90
13798;DHT22;6970;51.340;3.240;2024-03-23T02:25:46;8.90;99.90
13798;DHT22;6970;51.340;3.240;2024-03-23T02:28:14;8.90;99.90
13798;DHT22;6970;51.340;3.240;2024-03-23T02:30:40;8.90;99.90
13798;DHT22;6970;51.340;3.240;2024-03-23T02:33:06;8.90;99.90
13798;DHT22;6970;51.340;3.240;2024-03-23T02:35:35;8.90;99.90
13798;DHT22;6970;51.340;3.240;2024-03-23T02:38:02;8.90;99.90
13798;DHT22;6970;51.340;3.240;2024-03-23T02:40:28;8.90;99.90
13798;DHT22;6970;51.340;3.240;2024-03-23T02:42:57;8.90;99.90
13798;DHT22;6970;51.340;3.240;2024-03-23T02:45:26;8.90;99.90
13798;DHT22;6970;51.340;3.240;2024-03-23T02:47:51;8.90;99.90
13798;DHT22;6970;51.340;3.240;2024-03-23T02:50:24;8.90;99.90
13798;DHT22;6970;51.340;3.240;2024-03-23T02:52:53;8.80;99.90
13798;DHT22;6970;51.340;3.240;2024-03-23T02:55:20;8.80;99.90
13798;DHT22;6970;51.340;3.240;2024-03-23T02:57:49;8.80;99.90
13798;DHT22;6970;51.340;3.240;2024-03-23T03:00:15;8.80;99.90
13798;DHT22;6970;51.340;3.240;2024-03-23T03:02:41;8.80;99.90
13798;DHT22;6970;51.340;3.240;2024-03-23T03:05:07;8.80;99.90
13798;DHT22;6970;51.340;3.240;2024-03-23T03:07:34;8.80;99.90
13798;DHT22;6970;51.340;3.240;2024-03-23T03:10:00;8.70;99.90
13798;DHT22;6970;51.340;3.240;2024-03-23T03:12:29;8.70;99.90
13798;DHT22;6970;51.340;3.240;2024-03-23T03:14:56;8.70;99.90
13798;DHT22;6970;51.340;3.240;2024-03-23T03:17:22;8.70;99.90
13798;DHT22;6970;51.340;3.240;2024-03-23T03:19:51;8.70;99.90
13798;DHT22;6970;51.340;3.240;2024-03-23T03:22:23;8.70;99.90
13798;DHT22;6970;51.340;3.240;2024-03-23T03:24:52;8.70;99.90
13798;DHT22;6970;51.340;3.240;2024-03-23T03:27:21;8.70;99.90
13798;DHT22;6970;51.340;3.240;2024-03-23T03:29:49;8.60;99.90
13798;DHT22;6970;51.340;3.240;2024-03-23T03:32:15;8.60;99.90
13798;DHT22;6970;51.340;3.240;2024-03-23T03:34:44;8.60;99.90
13798;DHT22;6970;51.340;3.240;2024-03-23T03:37:11;8.60;99.90
13798;DHT22;6970;51.340;3.240;2024-03-23T03:39:39;8.60;99.90
13798;DHT22;6970;51.340;3.240;2024-03-23T03:42:06;8.50;99.90
13798;DHT22;6970;51.340;3.240;2024-03-23T03:44:36;8.60;99.90
13798;DHT22;6970;51.340;3.240;2024-03-23T03:47:04;8.60;99.90
13798;DHT22;6970;51.340;3.240;2024-03-23T03:49:32;8.50;99.90
13798;DHT22;6970;51.340;3.240;2024-03-23T03:52:04;8.50;99.90
13798;DHT22;6970;51.340;3.240;2024-03-23T03:54:33;8.50;99.90
13798;DHT22;6970;51.340;3.240;2024-03-23T03:57:02;8.50;99.90
13798;DHT22;6970;51.340;3.240;2024-03-23T03:59:31;8.50;99.90
13798;DHT22;6970;51.340;3.240;2024-03-23T04:01:57;8.40;99.90
13798;DHT22;6970;51.340;3.240;2024-03-23T04:04:24;8.40;99.90
13798;DHT22;6970;51.340;3.240;2024-03-23T04:06:59;8.40;99.90
13798;DHT22;6970;51.340;3.240;2024-03-23T04:09:25;8.40;99.90
13798;DHT22;6970;51.340;3.240;2024-03-23T04:11:53;8.40;99.90
13798;DHT22;6970;51.340;3.240;2024-03-23T04:14:23;8.40;99.90
13798;DHT22;6970;51.340;3.240;2024-03-23T04:16:50;8.40;99.90
13798;DHT22;6970;51.340;3.240;2024-03-23T04:19:16;8.40;99.90
13798;DHT22;6970;51.340;3.240;2024-03-23T04:21:42;8.40;99.90
13798;DHT22;6970;51.340;3.240;2024-03-23T04:24:08;8.40;99.90
13798;DHT22;6970;51.340;3.240;2024-03-23T04:26:43;8.40;99.90
13798;DHT22;6970;51.340;3.240;2024-03-23T04:29:11;8.40;99.90
13798;DHT22;6970;51.340;3.240;2024-03-23T04:31:38;8.50;99.90
13798;DHT22;6970;51.340;3.240;2024-03-23T04:34:05;8.50;99.90
13798;DHT22;6970;51.340;3.240;2024-03-23T04:36:31;8.50;99.90
13798;DHT22;6970;51.340;3.240;2024-03-23T04:39:05;8.50;99.90
13798;DHT22;6970;51.340;3.240;2024-03-23T04:41:35;8.40;99.90
13798;DHT22;6970;51.340;3.240;2024-03-23T04:44:04;8.40;99.90
13798;DHT22;6970;51.340;3.240;2024-03-23T04:46:32;8.40;99.90
13798;DHT22;6970;51.340;3.240;2024-03-23T04:49:01;8.40;99.90
13798;DHT22;6970;51.340;3.240;2024-03-23T04:51:35;8.40;99.90
13798;DHT22;6970;51.340;3.240;2024-03-23T04:54:06;8.40;99.90
13798;DHT22;6970;51.340;3.240;2024-03-23T04:56:35;8.40;99.90
13798;DHT22;6970;51.340;3.240;2024-03-23T04:59:03;8.40;99.90
13798;DHT22;6970;51.340;3.240;2024-03-23T05:01:31;8.30;99.90
13798;DHT22;6970;51.340;3.240;2024-03-23T05:03:58;8.30;99.90
13798;DHT22;6970;51.340;3.240;2024-03-23T05:06:28;8.30;99.90
13798;DHT22;6970;51.340;3.240;2024-03-23T05:08:57;8.30;99.90
13798;DHT22;6970;51.340;3.240;2024-03-23T05:11:26;8.20;99.90
13798;DHT22;6970;51.340;3.240;2024-03-23T05:13:56;8.20;99.90
13798;DHT22;6970;51.340;3.240;2024-03-23T05:16:28;8.20;99.90
13798;DHT22;6970;51.340;3.240;2024-03-23T05:18:57;8.20;99.90
13798;DHT22;6970;51.340;3.240;2024-03-23T05:21:23;8.20;99.90
13798;DHT22;6970;51.340;3.240;2024-03-23T05:23:53;8.20;99.90
13798;DHT22;6970;51.340;3.240;2024-03-23T05:26:23;8.20;99.90
13798;DHT22;6970;51.340;3.240;2024-03-23T05:28:50;8.20;99.90
13798;DHT22;6970;51.340;3.240;2024-03-23T05:31:26;8.20;99.90
13798;DHT22;6970;51.340;3.240;2024-03-23T05:33:55;8.20;99.90
13798;DHT22;6970;51.340;3.240;2024-03-23T05:36:23;8.20;99.90
13798;DHT22;6970;51.340;3.240;2024-03-23T05:38:54;8.20;99.90
13798;DHT22;6970;51.340;3.240;2024-03-23T05:41:20;8.20;99.90
13798;DHT22;6970;51.340;3.240;2024-03-23T05:43:49;8.20;99.90
13798;DHT22;6970;51.340;3.240;2024-03-23T05:46:16;8.20;99.90
13798;DHT22;6970;51.340;3.240;2024-03-23T05:48:43;8.20;99.90
13798;DHT22;6970;51.340;3.240;2024-03-23T05:51:13;8.20;99.90
13798;DHT22;6970;51.340;3.240;2024-03-23T05:53:45;8.10;99.90
13798;DHT22;6970;51.340;3.240;2024-03-23T05:56:11;8.20;99.90
13798;DHT22;6970;51.340;3.240;2024-03-23T05:58:40;8.20;99.90
13798;DHT22;6970;51.340;3.240;2024-03-23T06:01:10;8.20;99.90
13798;DHT22;6970;51.340;3.240;2024-03-23T06:03:36;8.30;99.90
13798;DHT22;6970;51.340;3.240;2024-03-23T06:06:05;8.30;99.90
13798;DHT22;6970;51.340;3.240;2024-03-23T06:08:36;8.40;99.90
13798;DHT22;6970;51.340;3.240;2024-03-23T06:11:05;8.40;99.90
13798;DHT22;6970;51.340;3.240;2024-03-23T06:13:37;8.40;99.90
13798;DHT22;6970;51.340;3.240;2024-03-23T06:16:03;8.50;99.90
13798;DHT22;6970;51.340;3.240;2024-03-23T06:18:30;8.60;99.90
13798;DHT22;6970;51.340;3.240;2024-03-23T06:20:59;8.60;99.90
13798;DHT22;6970;51.340;3.240;2024-03-23T06:23:28;8.70;99.90
13798;DHT22;6970;51.340;3.240;2024-03-23T06:25:57;8.80;99.90
13798;DHT22;6970;51.340;3.240;2024-03-23T06:28:26;8.80;99.90
13798;DHT22;6970;51.340;3.240;2024-03-23T06:30:52;8.90;99.90
13798;DHT22;6970;51.340;3.240;2024-03-23T06:33:21;8.90;99.90
13798;DHT22;6970;51.340;3.240;2024-03-23T06:35:55;8.90;99.90
13798;DHT22;6970;51.340;3.240;2024-03-23T06:38:22;8.90;99.90
13798;DHT22;6970;51.340;3.240;2024-03-23T06:40:49;8.90;99.90
13798;DHT22;6970;51.340;3.240;2024-03-23T06:43:18;8.90;99.90
13798;DHT22;6970;51.340;3.240;2024-03-23T06:45:53;8.90;99.90
13798;DHT22;6970;51.340;3.240;2024-03-23T06:48:21;8.90;99.90
13798;DHT22;6970;51.340;3.240;2024-03-23T06:50:49;8.90;99.90
13798;DHT22;6970;51.340;3.240;2024-03-23T06:53:16;9.00;99.90
13798;DHT22;6970;51.340;3.240;2024-03-23T06:55:51;9.00;99.90
13798;DHT22;6970;51.340;3.240;2024-03-23T06:58:23;9.00;99.90
13798;DHT22;6970;51.340;3.240;2024-03-23T07:00:51;9.10;99.90
13798;DHT22;6970;51.340;3.240;2024-03-23T07:03:17;9.30;99.90
13798;DHT22;6970;51.340;3.240;2024-03-23T07:05:45;9.40;99.90
13798;DHT22;6970;51.340;3.240;2024-03-23T07:08:12;9.40;99.90
13798;DHT22;6970;51.340;3.240;2024-03-23T07:10:42;9.40;99.90
13798;DHT22;6970;51.340;3.240;2024-03-23T07:13:09;9.30;99.90
13798;DHT22;6970;51.340;3.240;2024-03-23T07:15:36;9.20;99.90
13798;DHT22;6970;51.340;3.240;2024-03-23T07:18:02;9.10;99.90
13798;DHT22;6970;51.340;3.240;2024-03-23T07:20:29;9.10;99.90
13798;DHT22;6970;51.340;3.240;2024-03-23T07:22:58;9.50;99.90
13798;DHT22;6970;51.340;3.240;2024-03-23T07:25:25;10.40;99.90
13798;DHT22;6970;51.340;3.240;2024-03-23T07:27:57;11.30;99.90
13798;DHT22;6970;51.340;3.240;2024-03-23T07:30:25;12.20;99.90
13798;DHT22;6970;51.340;3.240;2024-03-23T07:32:53;12.40;99.90
13798;DHT22;6970;51.340;3.240;2024-03-23T07:35:19;12.60;99.90
13798;DHT22;6970;51.340;3.240;2024-03-23T07:37:45;13.20;99.90
13798;DHT22;6970;51.340;3.240;2024-03-23T07:40:17;14.10;99.90
13798;DHT22;6970;51.340;3.240;2024-03-23T07:42:43;15.30;99.90
13798;DHT22;6970;51.340;3.240;2024-03-23T07:45:11;16.50;98.20
13798;DHT22;6970;51.340;3.240;2024-03-23T07:47:37;17.30;95.50
13798;DHT22;6970;51.340;3.240;2024-03-23T07:50:04;17.60;95.30
13798;DHT22;6970;51.340;3.240;2024-03-23T07:52:31;17.20;94.70
13798;DHT22;6970;51.340;3.240;2024-03-23T07:54:57;16.60;94.90
13798;DHT22;6970;51.340;3.240;2024-03-23T07:57:24;16.20;95.70
13798;DHT22;6970;51.340;3.240;2024-03-23T07:59:50;16.30;95.50
13798;DHT22;6970;51.340;3.240;2024-03-23T08:02:18;15.90;95.70
13798;DHT22;6970;51.340;3.240;2024-03-23T08:04:46;15.30;95.50
13798;DHT22;6970;51.340;3.240;2024-03-23T08:07:15;14.50;96.40
13798;DHT22;6970;51.340;3.240;2024-03-23T08:09:42;13.50;96.90
13798;DHT22;6970;51.340;3.240;2024-03-23T08:12:08;12.80;98.70
13798;DHT22;6970;51.340;3.240;2024-03-23T08:14:38;13.70;99.90
13798;DHT22;6970;51.340;3.240;2024-03-23T08:17:04;15.40;98.20
13798;DHT22;6970;51.340;3.240;2024-03-23T08:19:32;16.80;96.00
13798;DHT22;6970;51.340;3.240;2024-03-23T08:22:01;18.00;93.90
13798;DHT22;6970;51.340;3.240;2024-03-23T08:24:31;18.10;92.00
13798;DHT22;6970;51.340;3.240;2024-03-23T08:26:58;18.70;91.90
13798;DHT22;6970;51.340;3.240;2024-03-23T08:29:27;20.20;90.60
13798;DHT22;6970;51.340;3.240;2024-03-23T08:31:54;21.20;86.60
13798;DHT22;6970;51.340;3.240;2024-03-23T08:34:20;21.90;83.40
13798;DHT22;6970;51.340;3.240;2024-03-23T08:36:47;21.40;82.00
13798;DHT22;6970;51.340;3.240;2024-03-23T08:39:19;21.10;82.40
13798;DHT22;6970;51.340;3.240;2024-03-23T08:41:50;19.40;83.20
13798;DHT22;6970;51.340;3.240;2024-03-23T08:44:18;18.70;87.70
13798;DHT22;6970;51.340;3.240;2024-03-23T08:46:49;18.20;88.00
13798;DHT22;6970;51.340;3.240;2024-03-23T08:49:17;17.50;90.00
13798;DHT22;6970;51.340;3.240;2024-03-23T08:51:45;17.30;90.70
13798;DHT22;6970;51.340;3.240;2024-03-23T08:54:11;17.20;90.10
13798;DHT22;6970;51.340;3.240;2024-03-23T08:56:37;16.60;91.00
13798;DHT22;6970;51.340;3.240;2024-03-23T08:59:04;17.50;91.40
13798;DHT22;6970;51.340;3.240;2024-03-23T09:01:33;18.60;90.20
13798;DHT22;6970;51.340;3.240;2024-03-23T09:04:00;19.60;86.80
13798;DHT22;6970;51.340;3.240;2024-03-23T09:06:28;20.30;84.70
13798;DHT22;6970;51.340;3.240;2024-03-23T09:08:55;20.10;82.60
13798;DHT22;6970;51.340;3.240;2024-03-23T09:11:24;18.60;87.00
13798;DHT22;6970;51.340;3.240;2024-03-23T09:13:56;16.90;91.00
13798;DHT22;6970;51.340;3.240;2024-03-23T09:16:22;15.40;93.20
13798;DHT22;6970;51.340;3.240;2024-03-23T09:18:48;14.40;95.20
13798;DHT22;6970;51.340;3.240;2024-03-23T09:21:16;13.70;98.10
13798;DHT22;6970;51.340;3.240;2024-03-23T09:23:45;13.00;99.20
13798;DHT22;6970;51.340;3.240;2024-03-23T09:26:16;12.60;99.90
13798;DHT22;6970;51.340;3.240;2024-03-23T09:28:45;12.50;99.90
13798;DHT22;6970;51.340;3.240;2024-03-23T09:31:13;12.40;99.90
13798;DHT22;6970;51.340;3.240;2024-03-23T09:33:41;12.20;99.90
13798;DHT22;6970;51.340;3.240;2024-03-23T09:36:09;12.20;99.90
13798;DHT22;6970;51.340;3.240;2024-03-23T09:38:35;12.20;99.90
13798;DHT22;6970;51.340;3.240;2024-03-23T09:41:08;12.60;99.90
13798;DHT22;6970;51.340;3.240;2024-03-23T09:43:35;13.60;99.90
13798;DHT22;6970;51.340;3.240;2024-03-23T09:46:03;15.30;99.90
13798;DHT22;6970;51.340;3.240;2024-03-23T09:48:30;17.00;98.70
13798;DHT22;6970;51.340;3.240;2024-03-23T09:50:57;18.40;93.80
13798;DHT22;6970;51.340;3.240;2024-03-23T09:53:26;19.10;93.20
13798;DHT22;6970;51.340;3.240;2024-03-23T09:55:55;19.50;91.90
13798;DHT22;6970;51.340;3.240;2024-03-23T09:58:23;19.70;91.30
13798;DHT22;6970;51.340;3.240;2024-03-23T10:00:53;19.30;90.90
13798;DHT22;6970;51.340;3.240;2024-03-23T10:03:22;18.50;91.30
13798;DHT22;6970;51.340;3.240;2024-03-23T10:06:03;18.00;92.20
13798;DHT22;6970;51.340;3.240;2024-03-23T10:08:30;18.30;92.70
13798;DHT22;6970;51.340;3.240;2024-03-23T10:11:15;18.80;92.20
13798;DHT22;6970;51.340;3.240;2024-03-23T10:13:50;18.20;92.20
13798;DHT22;6970;51.340;3.240;2024-03-23T10:16:22;17.80;93.10
13798;DHT22;6970;51.340;3.240;2024-03-23T10:18:50;17.30;93.80
13798;DHT22;6970;51.340;3.240;2024-03-23T10:21:18;17.10;94.10
13798;DHT22;6970;51.340;3.240;2024-03-23T10:23:47;17.00;94.20
13798;DHT22;6970;51.340;3.240;2024-03-23T10:26:25;16.60;94.20
13798;DHT22;6970;51.340;3.240;2024-03-23T10:28:59;15.90;96.00
13798;DHT22;6970;51.340;3.240;2024-03-23T10:31:33;15.50;96.70
13798;DHT22;6970;51.340;3.240;2024-03-23T10:34:00;15.50;97.00
13798;DHT22;6970;51.340;3.240;2024-03-23T10:36:29;15.60;96.70
13798;DHT22;6970;51.340;3.240;2024-03-23T10:38:59;15.50;96.30
13798;DHT22;6970;51.340;3.240;2024-03-23T10:41:32;15.00;96.20
13798;DHT22;6970;51.340;3.240;2024-03-23T10:44:01;14.40;96.80
13798;DHT22;6970;51.340;3.240;2024-03-23T10:46:30;14.00;97.60
13798;DHT22;6970;51.340;3.240;2024-03-23T10:49:00;13.50;98.00
13798;DHT22;6970;51.340;3.240;2024-03-23T10:51:26;13.10;98.80
13798;DHT22;6970;51.340;3.240;2024-03-23T10:53:59;13.30;99.40
13798;DHT22;6970;51.340;3.240;2024-03-23T10:56:29;14.50;98.60
13798;DHT22;6970;51.340;3.240;2024-03-23T10:59:00;15.60;96.80
13798;DHT22;6970;51.340;3.240;2024-03-23T11:01:29;16.20;95.70
13798;DHT22;6970;51.340;3.240;2024-03-23T11:03:55;16.60;95.40
13798;DHT22;6970;51.340;3.240;2024-03-23T11:06:38;17.10;94.30
13798;DHT22;6970;51.340;3.240;2024-03-23T11:09:49;17.30;93.80
13798;DHT22;6970;51.340;3.240;2024-03-23T11:11:57;17.50;93.30
13798;DHT22;6970;51.340;3.240;2024-03-23T11:14:23;17.60;92.40
13798;DHT22;6970;51.340;3.240;2024-03-23T11:17:08;17.00;92.60
13798;DHT22;6970;51.340;3.240;2024-03-23T11:19:36;16.10;93.60
13798;DHT22;6970;51.340;3.240;2024-03-23T11:22:02;15.10;95.10
13798;DHT22;6970;51.340;3.240;2024-03-23T11:24:33;14.60;96.80
13798;DHT22;6970;51.340;3.240;2024-03-23T11:27:01;14.90;96.50
13798;DHT22;6970;51.340;3.240;2024-03-23T11:29:30;15.10;95.10
13798;DHT22;6970;51.340;3.240;2024-03-23T11:31:56;15.20;94.80
13798;DHT22;6970;51.340;3.240;2024-03-23T11:34:22;14.60;94.40
13798;DHT22;6970;51.340;3.240;2024-03-23T11:36:50;14.00;95.70
13798;DHT22;6970;51.340;3.240;2024-03-23T11:39:29;13.50;96.70
13798;DHT22;6970;51.340;3.240;2024-03-23T11:41:57;13.00;97.70
13798;DHT22;6970;51.340;3.240;2024-03-23T11:44:25;12.50;98.20
13798;DHT22;6970;51.340;3.240;2024-03-23T11:46:52;12.00;99.90
13798;DHT22;6970;51.340;3.240;2024-03-23T11:49:25;11.40;99.90
13798;DHT22;6970;51.340;3.240;2024-03-23T11:51:52;11.10;99.90
13798;DHT22;6970;51.340;3.240;2024-03-23T11:54:26;10.90;99.90
13798;DHT22;6970;51.340;3.240;2024-03-23T12:02:06;10.10;99.90
13798;DHT22;6970;51.340;3.240;2024-03-23T12:04:36;10.00;99.90
13798;DHT22;6970;51.340;3.240;2024-03-23T12:07:16;9.90;99.90
13798;DHT22;6970;51.340;3.240;2024-03-23T12:10:05;9.80;99.90
13798;DHT22;6970;51.340;3.240;2024-03-23T12:12:36;9.70;99.90
13798;DHT22;6970;51.340;3.240;2024-03-23T12:15:12;9.60;99.90
13798;DHT22;6970;51.340;3.240;2024-03-23T12:17:42;9.60;99.90
13798;DHT22;6970;51.340;3.240;2024-03-23T12:20:16;9.80;99.90
13798;DHT22;6970;51.340;3.240;2024-03-23T12:22:44;10.30;99.90
13798;DHT22;6970;51.340;3.240;2024-03-23T12:25:14;10.80;99.90
13798;DHT22;6970;51.340;3.240;2024-03-23T12:27:41;11.00;99.90
13798;DHT22;6970;51.340;3.240;2024-03-23T12:30:09;11.00;99.90
13798;DHT22;6970;51.340;3.240;2024-03-23T12:32:35;11.00;99.90
13798;DHT22;6970;51.340;3.240;2024-03-23T12:35:04;10.90;99.90
13798;DHT22;6970;51.340;3.240;2024-03-23T12:37:32;10.80;99.90
13798;DHT22;6970;51.340;3.240;2024-03-23T12:40:01;10.70;99.90
13798;DHT22;6970;51.340;3.240;2024-03-23T12:42:27;11.00;99.90
13798;DHT22;6970;51.340;3.240;2024-03-23T12:44:58;11.40;99.90
13798;DHT22;6970;51.340;3.240;2024-03-23T12:47:27;11.90;99.90
13798;DHT22;6970;51.340;3.240;2024-03-23T12:49:56;12.10;99.60
13798;DHT22;6970;51.340;3.240;2024-03-23T12:52:24;12.20;98.70
13798;DHT22;6970;51.340;3.240;2024-03-23T12:54:58;12.20;98.40
13798;DHT22;6970;51.340;3.240;2024-03-23T12:57:27;12.40;99.40
13798;DHT22;6970;51.340;3.240;2024-03-23T12:59:54;12.80;99.60
13798;DHT22;6970;51.340;3.240;2024-03-23T13:02:23;13.10;99.60
13798;DHT22;6970;51.340;3.240;2024-03-23T13:04:53;13.10;99.30
13798;DHT22;6970;51.340;3.240;2024-03-23T13:07:22;13.00;99.80
13798;DHT22;6970;51.340;3.240;2024-03-23T13:09:55;13.10;99.90
13798;DHT22;6970;51.340;3.240;2024-03-23T13:12:25;13.00;99.90
13798;DHT22;6970;51.340;3.240;2024-03-23T13:14:52;13.00;99.70
13798;DHT22;6970;51.340;3.240;2024-03-23T13:17:19;13.00;99.20
13798;DHT22;6970;51.340;3.240;2024-03-23T13:19:48;12.80;98.80
13798;DHT22;6970;51.340;3.240;2024-03-23T13:22:17;12.70;99.20
13798;DHT22;6970;51.340;3.240;2024-03-23T13:24:46;12.60;99.20
13798;DHT22;6970;51.340;3.240;2024-03-23T13:27:16;12.50;99.60
13798;DHT22;6970;51.340;3.240;2024-03-23T13:29:45;12.30;99.90
13798;DHT22;6970;51.340;3.240;2024-03-23T13:32:12;11.70;99.90
13798;DHT22;6970;51.340;3.240;2024-03-23T13:34:40;11.20;99.90
13798;DHT22;6970;51.340;3.240;2024-03-23T13:37:07;10.80;99.90
13798;DHT22;6970;51.340;3.240;2024-03-23T13:39:36;10.70;99.90
13798;DHT22;6970;51.340;3.240;2024-03-23T13:42:02;10.80;99.90
13798;DHT22;6970;51.340;3.240;2024-03-23T13:44:32;10.70;99.90
13798;DHT22;6970;51.340;3.240;2024-03-23T13:46:58;10.70;99.90
13798;DHT22;6970;51.340;3.240;2024-03-23T13:49:27;10.90;99.90
13798;DHT22;6970;51.340;3.240;2024-03-23T13:51:56;11.00;99.90
13798;DHT22;6970;51.340;3.240;2024-03-23T13:54:28;11.10;99.90
13798;DHT22;6970;51.340;3.240;2024-03-23T13:56:56;11.00;99.90
13798;DHT22;6970;51.340;3.240;2024-03-23T13:59:25;10.80;99.90
13798;DHT22;6970;51.340;3.240;2024-03-23T14:01:53;10.70;99.90
13798;DHT22;6970;51.340;3.240;2024-03-23T14:04:25;10.70;99.90
13798;DHT22;6970;51.340;3.240;2024-03-23T14:06:52;10.90;99.90
13798;DHT22;6970;51.340;3.240;2024-03-23T14:09:19;11.20;99.90
13798;DHT22;6970;51.340;3.240;2024-03-23T14:11:51;11.50;99.90
13798;DHT22;6970;51.340;3.240;2024-03-23T14:14:19;11.90;99.90
13798;DHT22;6970;51.340;3.240;2024-03-23T14:16:49;12.20;99.90
13798;DHT22;6970;51.340;3.240;2024-03-23T14:19:18;12.50;99.90
13798;DHT22;6970;51.340;3.240;2024-03-23T14:21:46;12.70;99.90
13798;DHT22;6970;51.340;3.240;2024-03-23T14:24:12;12.80;99.90
13798;DHT22;6970;51.340;3.240;2024-03-23T14:26:39;12.90;99.90
13798;DHT22;6970;51.340;3.240;2024-03-23T14:29:08;12.80;99.80
13798;DHT22;6970;51.340;3.240;2024-03-23T14:31:35;12.90;99.80
13798;DHT22;6970;51.340;3.240;2024-03-23T14:34:04;13.00;99.40
13798;DHT22;6970;51.340;3.240;2024-03-23T14:36:31;13.10;99.40
13798;DHT22;6970;51.340;3.240;2024-03-23T14:39:00;13.20;99.10
13798;DHT22;6970;51.340;3.240;2024-03-23T14:41:27;13.30;98.90
13798;DHT22;6970;51.340;3.240;2024-03-23T14:43:53;13.20;99.00
13798;DHT22;6970;51.340;3.240;2024-03-23T14:46:23;13.20;99.30
13798;DHT22;6970;51.340;3.240;2024-03-23T14:48:49;13.20;99.80
13798;DHT22;6970;51.340;3.240;2024-03-23T14:51:18;13.00;99.90
13798;DHT22;6970;51.340;3.240;2024-03-23T14:53:46;12.60;99.90
13798;DHT22;6970;51.340;3.240;2024-03-23T14:56:13;12.30;99.90
13798;DHT22;6970;51.340;3.240;2024-03-23T14:58:42;12.30;99.90
13798;DHT22;6970;51.340;3.240;2024-03-23T15:01:09;12.20;99.90
13798;DHT22;6970;51.340;3.240;2024-03-23T15:03:38;12.20;99.90
13798;DHT22;6970;51.340;3.240;2024-03-23T15:06:05;12.10;99.90
13798;DHT22;6970;51.340;3.240;2024-03-23T15:08:36;12.10;99.90
13798;DHT22;6970;51.340;3.240;2024-03-23T15:11:06;12.10;99.90
13798;DHT22;6970;51.340;3.240;2024-03-23T15:13:38;12.20;99.90
13798;DHT22;6970;51.340;3.240;2024-03-23T15:16:06;12.20;99.90
13798;DHT22;6970;51.340;3.240;2024-03-23T15:18:33;12.20;99.90
13798;DHT22;6970;51.340;3.240;2024-03-23T15:21:03;12.30;99.90
13798;DHT22;6970;51.340;3.240;2024-03-23T15:23:34;12.40;99.90
13798;DHT22;6970;51.340;3.240;2024-03-23T15:26:04;12.40;99.90
13798;DHT22;6970;51.340;3.240;2024-03-23T15:28:33;12.40;99.90
13798;DHT22;6970;51.340;3.240;2024-03-23T15:31:18;12.40;99.90
13798;DHT22;6970;51.340;3.240;2024-03-23T15:33:44;12.40;99.90
13798;DHT22;6970;51.340;3.240;2024-03-23T15:36:11;12.30;99.90
13798;DHT22;6970;51.340;3.240;2024-03-23T15:38:38;12.30;99.90
13798;DHT22;6970;51.340;3.240;2024-03-23T15:41:07;12.20;99.90
13798;DHT22;6970;51.340;3.240;2024-03-23T15:43:33;12.30;99.90
13798;DHT22;6970;51.340;3.240;2024-03-23T15:46:01;12.20;99.90
13798;DHT22;6970;51.340;3.240;2024-03-23T15:48:29;12.10;99.50
13798;DHT22;6970;51.340;3.240;2024-03-23T15:50:57;11.80;99.70
13798;DHT22;6970;51.340;3.240;2024-03-23T15:53:28;11.50;99.90
13798;DHT22;6970;51.340;3.240;2024-03-23T15:58:26;11.10;99.90
13798;DHT22;6970;51.340;3.240;2024-03-23T16:01:09;10.90;99.90
13798;DHT22;6970;51.340;3.240;2024-03-23T16:03:39;10.80;99.90
13798;DHT22;6970;51.340;3.240;2024-03-23T16:06:08;10.80;99.90
13798;DHT22;6970;51.340;3.240;2024-03-23T16:08:34;10.60;99.90
13798;DHT22;6970;51.340;3.240;2024-03-23T16:11:05;10.50;99.90
13798;DHT22;6970;51.340;3.240;2024-03-23T16:13:35;10.30;99.90
13798;DHT22;6970;51.340;3.240;2024-03-23T16:16:04;10.20;99.90
13798;DHT22;6970;51.340;3.240;2024-03-23T16:21:06;10.10;99.90
13798;DHT22;6970;51.340;3.240;2024-03-23T16:23:36;10.10;99.90
13798;DHT22;6970;51.340;3.240;2024-03-23T16:26:08;10.00;99.90
13798;DHT22;6970;51.340;3.240;2024-03-23T16:28:39;10.00;99.90
13798;DHT22;6970;51.340;3.240;2024-03-23T16:31:12;9.80;99.90
13798;DHT22;6970;51.340;3.240;2024-03-23T16:33:38;9.70;99.90
13798;DHT22;6970;51.340;3.240;2024-03-23T16:36:08;9.60;99.90
13798;DHT22;6970;51.340;3.240;2024-03-23T16:38:41;9.50;99.90
13798;DHT22;6970;51.340;3.240;2024-03-23T16:41:11;9.40;99.90
13798;DHT22;6970;51.340;3.240;2024-03-23T16:43:40;9.30;99.90
13798;DHT22;6970;51.340;3.240;2024-03-23T16:46:11;9.20;99.90
13798;DHT22;6970;51.340;3.240;2024-03-23T16:48:40;9.10;99.90
13798;DHT22;6970;51.340;3.240;2024-03-23T16:51:10;9.10;99.90
13798;DHT22;6970;51.340;3.240;2024-03-23T16:53:38;9.10;99.90
13798;DHT22;6970;51.340;3.240;2024-03-23T16:56:12;9.00;99.90
13798;DHT22;6970;51.340;3.240;2024-03-23T16:58:42;9.00;99.90
13798;DHT22;6970;51.340;3.240;2024-03-23T17:01:11;9.00;99.90
13798;DHT22;6970;51.340;3.240;2024-03-23T17:03:49;9.10;99.90
13798;DHT22;6970;51.340;3.240;2024-03-23T17:06:21;9.20;99.90
13798;DHT22;6970;51.340;3.240;2024-03-23T17:08:50;9.30;99.90